sensor_id;sensor_type;location;lat;lon;timestamp;pressure;altitude;pressure_sealevel;temperature;humidity
24996;BME280;13016;52.162;21.034;2023-02-18T00:00:58;99362.62;;;12.71;56.10
24996;BME280;13016;52.162;21.034;2023-02-18T00:03:27;99354.91;;;12.82;55.57
24996;BME280;13016;52.162;21.034;2023-02-18T00:09:13;99355.49;;;12.36;53.46
24996;BME280;13016;52.162;21.034;2023-02-18T00:11:44;99370.27;;;12.49;53.06
24996;BME280;13016;52.162;21.034;2023-02-18T00:14:16;99368.46;;;12.41;52.88
24996;BME280;13016;52.162;21.034;2023-02-18T00:17:06;99385.63;;;12.39;52.59
24996;BME280;13016;52.162;21.034;2023-02-18T00:19:31;99380.16;;;12.33;52.11
24996;BME280;13016;52.162;21.034;2023-02-18T00:21:57;99385.98;;;12.29;51.92
24996;BME280;13016;52.162;21.034;2023-02-18T00:24:22;99388.70;;;12.20;51.66
24996;BME280;13016;52.162;21.034;2023-02-18T00:26:50;99386.92;;;12.18;51.70
24996;BME280;13016;52.162;21.034;2023-02-18T00:29:16;99399.52;;;12.34;51.41
24996;BME280;13016;52.162;21.034;2023-02-18T00:31:43;99401.21;;;12.26;50.71
24996;BME280;13016;52.162;21.034;2023-02-18T00:34:11;99405.14;;;12.34;50.79
24996;BME280;13016;52.162;21.034;2023-02-18T00:36:37;99403.75;;;12.17;50.55
24996;BME280;13016;52.162;21.034;2023-02-18T00:39:07;99404.02;;;12.05;50.52
24996;BME280;13016;52.162;21.034;2023-02-18T00:41:33;99399.64;;;11.99;50.66
24996;BME280;13016;52.162;21.034;2023-02-18T00:43:59;99402.81;;;11.84;50.83
24996;BME280;13016;52.162;21.034;2023-02-18T00:46:26;99401.30;;;12.06;50.34
24996;BME280;13016;52.162;21.034;2023-02-18T00:48:52;99410.02;;;12.04;50.11
24996;BME280;13016;52.162;21.034;2023-02-18T00:51:18;99403.13;;;12.04;50.19
24996;BME280;13016;52.162;21.034;2023-02-18T00:53:48;99410.21;;;12.01;50.10
24996;BME280;13016;52.162;21.034;2023-02-18T00:56:13;99406.42;;;11.96;50.10
24996;BME280;13016;52.162;21.034;2023-02-18T00:58:39;99420.65;;;12.10;50.10
24996;BME280;13016;52.162;21.034;2023-02-18T01:01:06;99412.06;;;12.08;49.52
24996;BME280;13016;52.162;21.034;2023-02-18T01:03:32;99400.52;;;11.93;49.14
24996;BME280;13016;52.162;21.034;2023-02-18T01:05:58;99413.31;;;12.02;48.98
24996;BME280;13016;52.162;21.034;2023-02-18T01:11:46;99417.21;;;12.04;49.35
24996;BME280;13016;52.162;21.034;2023-02-18T01:14:15;99415.13;;;12.19;49.43
24996;BME280;13016;52.162;21.034;2023-02-18T01:16:45;99413.31;;;12.19;49.49
24996;BME280;13016;52.162;21.034;2023-02-18T01:19:10;99421.62;;;11.98;49.19
24996;BME280;13016;52.162;21.034;2023-02-18T01:21:39;99423.02;;;12.03;49.43
24996;BME280;13016;52.162;21.034;2023-02-18T01:24:05;99424.92;;;11.99;49.35
24996;BME280;13016;52.162;21.034;2023-02-18T01:26:32;99417.60;;;11.97;48.69
24996;BME280;13016;52.162;21.034;2023-02-18T01:28:58;99423.24;;;12.13;48.97
24996;BME280;13016;52.162;21.034;2023-02-18T01:31:24;99423.64;;;12.10;48.96
24996;BME280;13016;52.162;21.034;2023-02-18T01:33:50;99430.12;;;12.10;49.04
24996;BME280;13016;52.162;21.034;2023-02-18T01:36:17;99425.38;;;12.16;48.78
24996;BME280;13016;52.162;21.034;2023-02-18T01:38:43;99425.41;;;12.20;49.02
24996;BME280;13016;52.162;21.034;2023-02-18T01:44:33;99421.55;;;12.14;48.73
24996;BME280;13016;52.162;21.034;2023-02-18T01:47:25;99415.83;;;12.10;49.12
24996;BME280;13016;52.162;21.034;2023-02-18T01:49:52;99412.39;;;12.07;49.34
24996;BME280;13016;52.162;21.034;2023-02-18T01:52:22;99405.47;;;12.16;49.49
24996;BME280;13016;52.162;21.034;2023-02-18T01:54:52;99407.98;;;12.26;49.15
24996;BME280;13016;52.162;21.034;2023-02-18T01:57:42;99400.48;;;12.10;49.08
24996;BME280;13016;52.162;21.034;2023-02-18T02:00:29;99403.95;;;12.19;48.94
24996;BME280;13016;52.162;21.034;2023-02-18T02:02:54;99404.02;;;12.29;49.02
24996;BME280;13016;52.162;21.034;2023-02-18T02:05:20;99402.04;;;12.00;49.08
24996;BME280;13016;52.162;21.034;2023-02-18T02:07:48;99401.79;;;11.92;49.13
24996;BME280;13016;52.162;21.034;2023-02-18T02:10:17;99398.96;;;11.84;49.18
24996;BME280;13016;52.162;21.034;2023-02-18T02:15:27;99395.63;;;12.02;48.86
24996;BME280;13016;52.162;21.034;2023-02-18T02:18:24;99400.08;;;11.93;48.87
24996;BME280;13016;52.162;21.034;2023-02-18T02:27:19;99394.45;;;11.58;49.45
24996;BME280;13016;52.162;21.034;2023-02-18T02:30:12;99386.70;;;11.63;49.43
24996;BME280;13016;52.162;21.034;2023-02-18T02:36:43;99396.61;;;11.60;49.52
24996;BME280;13016;52.162;21.034;2023-02-18T02:44:44;99395.39;;;11.62;49.34
24996;BME280;13016;52.162;21.034;2023-02-18T02:47:38;99397.39;;;11.50;49.27
24996;BME280;13016;52.162;21.034;2023-02-18T02:50:19;99404.53;;;11.56;49.32
24996;BME280;13016;52.162;21.034;2023-02-18T02:52:51;99406.64;;;11.51;49.62
24996;BME280;13016;52.162;21.034;2023-02-18T02:55:17;99415.64;;;11.65;49.39
24996;BME280;13016;52.162;21.034;2023-02-18T02:57:49;99415.88;;;11.60;49.17
24996;BME280;13016;52.162;21.034;2023-02-18T03:00:18;99420.67;;;11.57;49.19
24996;BME280;13016;52.162;21.034;2023-02-18T03:08:31;99424.27;;;11.37;49.38
24996;BME280;13016;52.162;21.034;2023-02-18T03:16:49;99430.52;;;11.27;49.84
24996;BME280;13016;52.162;21.034;2023-02-18T03:19:39;99429.17;;;11.17;50.02
24996;BME280;13016;52.162;21.034;2023-02-18T03:22:24;99436.45;;;11.30;50.04
24996;BME280;13016;52.162;21.034;2023-02-18T03:24:53;99443.70;;;11.39;49.55
24996;BME280;13016;52.162;21.034;2023-02-18T03:27:32;99441.19;;;11.39;49.56
24996;BME280;13016;52.162;21.034;2023-02-18T03:30:05;99446.20;;;11.36;49.45
24996;BME280;13016;52.162;21.034;2023-02-18T03:32:33;99447.17;;;11.26;49.81
24996;BME280;13016;52.162;21.034;2023-02-18T03:35:09;99446.58;;;11.22;49.72
24996;BME280;13016;52.162;21.034;2023-02-18T03:37:42;99439.15;;;10.98;49.97
24996;BME280;13016;52.162;21.034;2023-02-18T03:40:09;99439.36;;;11.07;49.90
24996;BME280;13016;52.162;21.034;2023-02-18T03:42:36;99445.73;;;10.97;49.98
24996;BME280;13016;52.162;21.034;2023-02-18T03:45:01;99445.23;;;10.95;50.01
24996;BME280;13016;52.162;21.034;2023-02-18T03:47:30;99446.30;;;11.05;50.12
24996;BME280;13016;52.162;21.034;2023-02-18T03:50:16;99457.48;;;11.07;49.84
24996;BME280;13016;52.162;21.034;2023-02-18T03:52:41;99458.39;;;11.04;49.69
24996;BME280;13016;52.162;21.034;2023-02-18T03:55:07;99461.67;;;11.08;49.74
24996;BME280;13016;52.162;21.034;2023-02-18T03:57:33;99460.20;;;11.11;49.69
24996;BME280;13016;52.162;21.034;2023-02-18T03:59:58;99456.52;;;11.02;49.83
24996;BME280;13016;52.162;21.034;2023-02-18T04:02:24;99456.90;;;10.96;49.70
24996;BME280;13016;52.162;21.034;2023-02-18T04:04:49;99456.87;;;11.04;49.69
24996;BME280;13016;52.162;21.034;2023-02-18T04:07:16;99459.08;;;10.87;49.98
24996;BME280;13016;52.162;21.034;2023-02-18T04:09:42;99468.53;;;10.90;49.74
24996;BME280;13016;52.162;21.034;2023-02-18T04:12:08;99470.98;;;10.88;49.92
24996;BME280;13016;52.162;21.034;2023-02-18T04:14:33;99468.20;;;10.71;50.08
24996;BME280;13016;52.162;21.034;2023-02-18T04:16:59;99468.60;;;10.78;49.72
24996;BME280;13016;52.162;21.034;2023-02-18T04:19:24;99464.83;;;10.81;49.50
24996;BME280;13016;52.162;21.034;2023-02-18T04:21:51;99471.22;;;10.92;49.18
24996;BME280;13016;52.162;21.034;2023-02-18T04:24:16;99476.06;;;10.81;49.23
24996;BME280;13016;52.162;21.034;2023-02-18T04:26:41;99474.28;;;11.02;49.19
24996;BME280;13016;52.162;21.034;2023-02-18T04:29:07;99466.77;;;10.78;49.29
24996;BME280;13016;52.162;21.034;2023-02-18T04:31:34;99465.01;;;10.79;49.40
24996;BME280;13016;52.162;21.034;2023-02-18T04:33:59;99472.77;;;10.90;49.12
24996;BME280;13016;52.162;21.034;2023-02-18T04:36:25;99481.17;;;10.89;49.13
24996;BME280;13016;52.162;21.034;2023-02-18T04:38:50;99474.86;;;11.06;48.85
24996;BME280;13016;52.162;21.034;2023-02-18T04:41:16;99478.46;;;10.87;48.95
24996;BME280;13016;52.162;21.034;2023-02-18T04:43:42;99483.99;;;10.77;49.27
24996;BME280;13016;52.162;21.034;2023-02-18T04:46:09;99468.20;;;10.81;48.94
24996;BME280;13016;52.162;21.034;2023-02-18T04:48:35;99475.63;;;10.89;48.80
24996;BME280;13016;52.162;21.034;2023-02-18T04:51:03;99481.02;;;10.84;48.95
24996;BME280;13016;52.162;21.034;2023-02-18T04:53:31;99491.31;;;10.94;48.68
24996;BME280;13016;52.162;21.034;2023-02-18T04:55:56;99488.46;;;10.74;48.92
24996;BME280;13016;52.162;21.034;2023-02-18T04:58:22;99483.73;;;10.43;49.66
24996;BME280;13016;52.162;21.034;2023-02-18T05:00:47;99480.02;;;10.62;49.48
24996;BME280;13016;52.162;21.034;2023-02-18T05:03:14;99483.50;;;10.77;49.00
24996;BME280;13016;52.162;21.034;2023-02-18T05:05:40;99481.97;;;10.85;48.72
24996;BME280;13016;52.162;21.034;2023-02-18T05:08:06;99482.87;;;10.66;48.88
24996;BME280;13016;52.162;21.034;2023-02-18T05:10:31;99484.71;;;10.88;48.61
24996;BME280;13016;52.162;21.034;2023-02-18T05:12:56;99491.45;;;10.81;48.54
24996;BME280;13016;52.162;21.034;2023-02-18T05:15:22;99488.06;;;10.68;48.84
24996;BME280;13016;52.162;21.034;2023-02-18T05:17:47;99493.27;;;10.57;49.11
24996;BME280;13016;52.162;21.034;2023-02-18T05:20:13;99497.85;;;10.60;49.11
24996;BME280;13016;52.162;21.034;2023-02-18T05:22:38;99489.12;;;10.65;48.95
24996;BME280;13016;52.162;21.034;2023-02-18T05:33:43;99506.08;;;10.67;48.83
24996;BME280;13016;52.162;21.034;2023-02-18T05:42:25;99516.02;;;10.53;49.02
24996;BME280;13016;52.162;21.034;2023-02-18T05:54:04;99523.44;;;10.66;49.08
24996;BME280;13016;52.162;21.034;2023-02-18T06:08:41;99536.56;;;11.23;47.75
24996;BME280;13016;52.162;21.034;2023-02-18T06:11:08;99547.83;;;11.37;47.10
24996;BME280;13016;52.162;21.034;2023-02-18T06:13:37;99549.46;;;11.13;47.66
24996;BME280;13016;52.162;21.034;2023-02-18T06:16:06;99555.57;;;10.96;48.03
24996;BME280;13016;52.162;21.034;2023-02-18T06:18:32;99557.02;;;10.81;48.39
24996;BME280;13016;52.162;21.034;2023-02-18T06:21:00;99558.67;;;10.67;48.49
24996;BME280;13016;52.162;21.034;2023-02-18T06:23:34;99561.70;;;10.78;48.18
24996;BME280;13016;52.162;21.034;2023-02-18T06:26:00;99568.98;;;10.78;48.23
24996;BME280;13016;52.162;21.034;2023-02-18T06:28:25;99567.39;;;10.85;47.98
24996;BME280;13016;52.162;21.034;2023-02-18T06:30:50;99557.63;;;10.90;47.87
24996;BME280;13016;52.162;21.034;2023-02-18T06:33:15;99563.55;;;10.67;48.26
24996;BME280;13016;52.162;21.034;2023-02-18T06:35:42;99569.59;;;10.53;48.66
24996;BME280;13016;52.162;21.034;2023-02-18T06:38:16;99570.02;;;10.76;48.38
24996;BME280;13016;52.162;21.034;2023-02-18T06:40:41;99575.34;;;10.84;48.05
24996;BME280;13016;52.162;21.034;2023-02-18T06:43:06;99568.39;;;10.71;48.37
24996;BME280;13016;52.162;21.034;2023-02-18T06:45:32;99565.40;;;10.66;48.42
24996;BME280;13016;52.162;21.034;2023-02-18T06:47:57;99584.80;;;10.69;48.22
24996;BME280;13016;52.162;21.034;2023-02-18T06:50:23;99595.56;;;10.78;48.14
24996;BME280;13016;52.162;21.034;2023-02-18T06:52:48;99594.23;;;10.89;48.26
24996;BME280;13016;52.162;21.034;2023-02-18T06:55:13;99597.90;;;10.80;48.17
24996;BME280;13016;52.162;21.034;2023-02-18T06:57:39;99599.69;;;10.77;48.19
24996;BME280;13016;52.162;21.034;2023-02-18T07:00:07;99605.16;;;10.77;48.14
24996;BME280;13016;52.162;21.034;2023-02-18T07:02:33;99609.38;;;10.61;48.59
24996;BME280;13016;52.162;21.034;2023-02-18T07:04:58;99603.97;;;10.69;48.43
24996;BME280;13016;52.162;21.034;2023-02-18T07:07:24;99607.96;;;10.75;48.36
24996;BME280;13016;52.162;21.034;2023-02-18T07:09:49;99611.43;;;10.78;48.02
24996;BME280;13016;52.162;21.034;2023-02-18T07:12:14;99615.23;;;10.79;48.13
24996;BME280;13016;52.162;21.034;2023-02-18T07:14:40;99612.23;;;10.70;48.36
24996;BME280;13016;52.162;21.034;2023-02-18T07:17:05;99617.31;;;10.82;48.20
24996;BME280;13016;52.162;21.034;2023-02-18T07:19:30;99607.32;;;10.91;48.21
24996;BME280;13016;52.162;21.034;2023-02-18T07:21:56;99605.39;;;10.93;48.20
24996;BME280;13016;52.162;21.034;2023-02-18T07:24:25;99611.13;;;11.03;47.88
24996;BME280;13016;52.162;21.034;2023-02-18T07:26:50;99604.77;;;11.04;47.79
24996;BME280;13016;52.162;21.034;2023-02-18T07:29:15;99612.34;;;10.99;48.05
24996;BME280;13016;52.162;21.034;2023-02-18T07:31:48;99602.67;;;10.99;47.92
24996;BME280;13016;52.162;21.034;2023-02-18T07:39:43;99592.67;;;11.18;47.45
24996;BME280;13016;52.162;21.034;2023-02-18T07:42:12;99594.89;;;11.22;47.32
24996;BME280;13016;52.162;21.034;2023-02-18T07:44:37;99593.51;;;11.17;47.29
24996;BME280;13016;52.162;21.034;2023-02-18T07:47:04;99582.89;;;11.22;47.20
24996;BME280;13016;52.162;21.034;2023-02-18T07:49:54;99588.41;;;11.21;47.35
24996;BME280;13016;52.162;21.034;2023-02-18T07:52:20;99587.42;;;11.36;46.84
24996;BME280;13016;52.162;21.034;2023-02-18T07:54:46;99592.32;;;11.39;46.45
24996;BME280;13016;52.162;21.034;2023-02-18T07:57:11;99588.67;;;11.45;46.09
24996;BME280;13016;52.162;21.034;2023-02-18T07:59:36;99599.35;;;11.49;46.21
24996;BME280;13016;52.162;21.034;2023-02-18T08:02:03;99600.58;;;11.68;45.83
24996;BME280;13016;52.162;21.034;2023-02-18T08:04:29;99600.23;;;11.76;45.53
24996;BME280;13016;52.162;21.034;2023-02-18T08:06:54;99607.84;;;11.78;45.59
24996;BME280;13016;52.162;21.034;2023-02-18T08:09:20;99609.25;;;11.53;45.76
24996;BME280;13016;52.162;21.034;2023-02-18T08:11:45;99608.16;;;11.38;46.11
24996;BME280;13016;52.162;21.034;2023-02-18T08:14:10;99618.35;;;11.47;45.84
24996;BME280;13016;52.162;21.034;2023-02-18T08:16:36;99612.46;;;11.37;45.99
24996;BME280;13016;52.162;21.034;2023-02-18T08:19:02;99621.14;;;11.41;46.30
24996;BME280;13016;52.162;21.034;2023-02-18T08:21:28;99615.79;;;11.65;46.01
24996;BME280;13016;52.162;21.034;2023-02-18T08:23:54;99619.34;;;11.65;45.93
24996;BME280;13016;52.162;21.034;2023-02-18T08:26:21;99621.89;;;11.57;45.81
24996;BME280;13016;52.162;21.034;2023-02-18T08:28:47;99625.73;;;11.60;45.86
24996;BME280;13016;52.162;21.034;2023-02-18T08:31:24;99624.67;;;11.64;45.43
24996;BME280;13016;52.162;21.034;2023-02-18T08:33:50;99629.58;;;11.62;45.70
24996;BME280;13016;52.162;21.034;2023-02-18T08:36:16;99627.21;;;11.68;45.64
24996;BME280;13016;52.162;21.034;2023-02-18T08:38:42;99624.73;;;11.73;45.51
24996;BME280;13016;52.162;21.034;2023-02-18T08:41:08;99624.61;;;11.77;45.27
24996;BME280;13016;52.162;21.034;2023-02-18T08:43:41;99617.86;;;11.77;45.50
24996;BME280;13016;52.162;21.034;2023-02-18T08:46:07;99623.09;;;11.87;45.36
24996;BME280;13016;52.162;21.034;2023-02-18T08:48:32;99624.52;;;12.00;45.01
24996;BME280;13016;52.162;21.034;2023-02-18T08:50:58;99632.23;;;12.03;45.27
24996;BME280;13016;52.162;21.034;2023-02-18T08:53:24;99637.63;;;12.26;45.05
24996;BME280;13016;52.162;21.034;2023-02-18T08:55:49;99639.92;;;12.33;44.27
24996;BME280;13016;52.162;21.034;2023-02-18T08:58:15;99649.48;;;12.21;44.40
24996;BME280;13016;52.162;21.034;2023-02-18T09:00:42;99654.17;;;12.18;44.50
24996;BME280;13016;52.162;21.034;2023-02-18T09:03:13;99648.91;;;12.11;44.53
24996;BME280;13016;52.162;21.034;2023-02-18T09:05:39;99653.27;;;12.17;44.94
24996;BME280;13016;52.162;21.034;2023-02-18T09:08:04;99656.13;;;11.96;44.80
24996;BME280;13016;52.162;21.034;2023-02-18T09:10:30;99654.03;;;12.00;44.77
24996;BME280;13016;52.162;21.034;2023-02-18T09:12:55;99654.16;;;12.01;45.08
24996;BME280;13016;52.162;21.034;2023-02-18T09:15:20;99657.40;;;12.11;44.55
24996;BME280;13016;52.162;21.034;2023-02-18T09:17:45;99653.02;;;11.97;45.07
24996;BME280;13016;52.162;21.034;2023-02-18T09:20:11;99664.48;;;12.11;44.89
24996;BME280;13016;52.162;21.034;2023-02-18T09:22:36;99669.91;;;12.25;44.36
24996;BME280;13016;52.162;21.034;2023-02-18T09:25:02;99671.95;;;12.08;44.65
24996;BME280;13016;52.162;21.034;2023-02-18T09:27:28;99666.48;;;11.72;44.69
24996;BME280;13016;52.162;21.034;2023-02-18T09:29:53;99672.23;;;11.86;44.69
24996;BME280;13016;52.162;21.034;2023-02-18T09:32:18;99674.34;;;12.16;44.47
24996;BME280;13016;52.162;21.034;2023-02-18T09:34:50;99671.52;;;12.07;44.30
24996;BME280;13016;52.162;21.034;2023-02-18T09:37:15;99681.42;;;12.02;44.08
24996;BME280;13016;52.162;21.034;2023-02-18T09:39:40;99686.52;;;11.94;43.95
24996;BME280;13016;52.162;21.034;2023-02-18T09:42:11;99676.53;;;12.04;44.20
24996;BME280;13016;52.162;21.034;2023-02-18T09:44:41;99677.88;;;12.14;43.93
24996;BME280;13016;52.162;21.034;2023-02-18T09:49:56;99680.74;;;12.18;43.73
24996;BME280;13016;52.162;21.034;2023-02-18T09:52:31;99685.98;;;12.16;43.82
24996;BME280;13016;52.162;21.034;2023-02-18T09:54:58;99686.38;;;12.16;43.97
24996;BME280;13016;52.162;21.034;2023-02-18T09:57:28;99692.02;;;12.07;44.12
24996;BME280;13016;52.162;21.034;2023-02-18T10:00:02;99693.22;;;12.10;43.99
24996;BME280;13016;52.162;21.034;2023-02-18T10:02:29;99701.67;;;11.98;44.03
24996;BME280;13016;52.162;21.034;2023-02-18T10:04:56;99703.25;;;12.32;43.56
24996;BME280;13016;52.162;21.034;2023-02-18T10:07:28;99705.14;;;11.98;43.75
24996;BME280;13016;52.162;21.034;2023-02-18T10:09:56;99700.20;;;11.90;44.02
24996;BME280;13016;52.162;21.034;2023-02-18T10:12:25;99706.30;;;12.23;43.64
24996;BME280;13016;52.162;21.034;2023-02-18T10:14:56;99703.23;;;12.15;43.68
24996;BME280;13016;52.162;21.034;2023-02-18T10:17:24;99705.86;;;12.24;43.79
24996;BME280;13016;52.162;21.034;2023-02-18T10:19:52;99705.98;;;12.20;43.37
24996;BME280;13016;52.162;21.034;2023-02-18T10:22:19;99705.16;;;12.00;43.27
24996;BME280;13016;52.162;21.034;2023-02-18T10:24:50;99701.95;;;12.02;43.14
24996;BME280;13016;52.162;21.034;2023-02-18T10:27:51;99700.38;;;12.08;43.08
24996;BME280;13016;52.162;21.034;2023-02-18T10:33:39;99691.20;;;12.13;43.00
24996;BME280;13016;52.162;21.034;2023-02-18T10:39:25;99689.66;;;12.17;42.86
24996;BME280;13016;52.162;21.034;2023-02-18T10:44:53;99680.50;;;12.51;42.70
24996;BME280;13016;52.162;21.034;2023-02-18T10:52:28;99672.55;;;12.45;43.31
24996;BME280;13016;52.162;21.034;2023-02-18T10:55:05;99666.70;;;12.40;43.87
24996;BME280;13016;52.162;21.034;2023-02-18T10:57:31;99667.77;;;12.51;43.94
24996;BME280;13016;52.162;21.034;2023-02-18T10:59:58;99662.86;;;12.40;44.04
24996;BME280;13016;52.162;21.034;2023-02-18T11:02:29;99661.74;;;12.23;44.06
24996;BME280;13016;52.162;21.034;2023-02-18T11:04:57;99662.23;;;12.21;44.60
24996;BME280;13016;52.162;21.034;2023-02-18T11:20:28;99659.48;;;12.05;44.96
24996;BME280;13016;52.162;21.034;2023-02-18T11:23:44;99654.02;;;12.11;45.25
24996;BME280;13016;52.162;21.034;2023-02-18T11:26:18;99653.44;;;12.12;45.27
24996;BME280;13016;52.162;21.034;2023-02-18T11:28:57;99650.41;;;12.28;44.99
24996;BME280;13016;52.162;21.034;2023-02-18T11:31:26;99647.20;;;12.39;44.63
24996;BME280;13016;52.162;21.034;2023-02-18T11:33:57;99640.13;;;12.41;44.68
24996;BME280;13016;52.162;21.034;2023-02-18T11:36:33;99637.25;;;12.31;44.83
24996;BME280;13016;52.162;21.034;2023-02-18T11:39:04;99645.30;;;12.49;44.53
24996;BME280;13016;52.162;21.034;2023-02-18T11:41:39;99640.67;;;12.52;43.87
24996;BME280;13016;52.162;21.034;2023-02-18T11:44:05;99642.13;;;12.43;43.97
24996;BME280;13016;52.162;21.034;2023-02-18T11:46:33;99632.23;;;12.23;44.50
24996;BME280;13016;52.162;21.034;2023-02-18T11:49:34;99635.10;;;12.00;44.90
24996;BME280;13016;52.162;21.034;2023-02-18T11:54:33;99638.17;;;12.43;44.45
24996;BME280;13016;52.162;21.034;2023-02-18T11:57:01;99632.90;;;12.48;44.15
24996;BME280;13016;52.162;21.034;2023-02-18T11:59:31;99634.92;;;12.42;44.40
24996;BME280;13016;52.162;21.034;2023-02-18T12:04:51;99627.87;;;12.66;43.80
24996;BME280;13016;52.162;21.034;2023-02-18T12:09:55;99628.86;;;12.80;43.68
24996;BME280;13016;52.162;21.034;2023-02-18T12:15:33;99630.84;;;12.64;44.08
24996;BME280;13016;52.162;21.034;2023-02-18T12:18:39;99625.30;;;12.58;43.82
24996;BME280;13016;52.162;21.034;2023-02-18T12:21:29;99622.15;;;12.58;44.09
24996;BME280;13016;52.162;21.034;2023-02-18T12:29:28;99623.58;;;12.53;43.51
24996;BME280;13016;52.162;21.034;2023-02-18T12:32:18;99619.46;;;12.58;43.56
24996;BME280;13016;52.162;21.034;2023-02-18T12:38:20;99612.60;;;12.77;43.57
24996;BME280;13016;52.162;21.034;2023-02-18T12:41:04;99604.06;;;12.73;43.66
24996;BME280;13016;52.162;21.034;2023-02-18T12:47:18;99599.14;;;12.58;43.55
24996;BME280;13016;52.162;21.034;2023-02-18T12:49:30;99599.49;;;12.54;43.96
24996;BME280;13016;52.162;21.034;2023-02-18T12:58:02;99594.59;;;12.49;44.36
24996;BME280;13016;52.162;21.034;2023-02-18T13:01:26;99597.39;;;12.62;44.09
24996;BME280;13016;52.162;21.034;2023-02-18T13:04:23;99590.28;;;12.71;43.69
24996;BME280;13016;52.162;21.034;2023-02-18T13:12:16;99581.84;;;13.00;43.98
24996;BME280;13016;52.162;21.034;2023-02-18T13:15:26;99583.69;;;12.76;43.94
24996;BME280;13016;52.162;21.034;2023-02-18T13:17:57;99577.86;;;12.56;44.29
24996;BME280;13016;52.162;21.034;2023-02-18T13:21:02;99573.81;;;12.93;44.17
24996;BME280;13016;52.162;21.034;2023-02-18T13:23:22;99573.14;;;12.97;43.17
24996;BME280;13016;52.162;21.034;2023-02-18T13:25:56;99576.93;;;12.81;43.30
24996;BME280;13016;52.162;21.034;2023-02-18T13:33:49;99566.96;;;12.83;43.42
24996;BME280;13016;52.162;21.034;2023-02-18T13:36:24;99572.00;;;12.46;43.95
24996;BME280;13016;52.162;21.034;2023-02-18T13:41:26;99574.77;;;12.40;44.18
24996;BME280;13016;52.162;21.034;2023-02-18T13:43:52;99578.48;;;12.38;44.31
24996;BME280;13016;52.162;21.034;2023-02-18T13:46:18;99580.34;;;12.32;44.60
24996;BME280;13016;52.162;21.034;2023-02-18T13:51:31;99581.36;;;12.48;44.17
24996;BME280;13016;52.162;21.034;2023-02-18T13:56:41;99576.11;;;12.60;44.21
24996;BME280;13016;52.162;21.034;2023-02-18T13:59:18;99575.21;;;12.54;44.19
24996;BME280;13016;52.162;21.034;2023-02-18T14:01:48;99569.61;;;12.36;44.52
24996;BME280;13016;52.162;21.034;2023-02-18T14:04:35;99569.58;;;12.30;44.83
24996;BME280;13016;52.162;21.034;2023-02-18T14:09:48;99573.74;;;12.42;44.54
24996;BME280;13016;52.162;21.034;2023-02-18T14:12:25;99568.70;;;12.45;44.41
24996;BME280;13016;52.162;21.034;2023-02-18T14:14:59;99568.17;;;12.39;44.28
24996;BME280;13016;52.162;21.034;2023-02-18T14:17:34;99564.23;;;12.35;44.58
24996;BME280;13016;52.162;21.034;2023-02-18T14:27:44;99556.54;;;12.17;45.44
24996;BME280;13016;52.162;21.034;2023-02-18T14:30:18;99559.95;;;12.33;45.46
24996;BME280;13016;52.162;21.034;2023-02-18T14:32:45;99559.89;;;12.38;45.33
24996;BME280;13016;52.162;21.034;2023-02-18T14:43:32;99537.07;;;12.26;46.20
24996;BME280;13016;52.162;21.034;2023-02-18T14:49:12;99530.09;;;12.46;45.89
24996;BME280;13016;52.162;21.034;2023-02-18T14:51:43;99521.90;;;12.49;46.15
24996;BME280;13016;52.162;21.034;2023-02-18T14:54:15;99517.23;;;12.60;45.99
24996;BME280;13016;52.162;21.034;2023-02-18T14:59:17;99519.70;;;12.49;46.04
24996;BME280;13016;52.162;21.034;2023-02-18T15:01:45;99525.84;;;12.35;46.16
24996;BME280;13016;52.162;21.034;2023-02-18T15:04:13;99526.23;;;12.20;46.12
24996;BME280;13016;52.162;21.034;2023-02-18T15:06:39;99527.86;;;12.13;46.43
24996;BME280;13016;52.162;21.034;2023-02-18T15:09:18;99538.52;;;11.97;46.61
24996;BME280;13016;52.162;21.034;2023-02-18T15:12:04;99533.22;;;11.73;46.93
24996;BME280;13016;52.162;21.034;2023-02-18T15:14:41;99535.77;;;11.42;47.73
24996;BME280;13016;52.162;21.034;2023-02-18T15:17:13;99550.89;;;11.54;47.71
24996;BME280;13016;52.162;21.034;2023-02-18T15:19:47;99541.77;;;11.17;47.39
24996;BME280;13016;52.162;21.034;2023-02-18T15:22:16;99545.70;;;11.09;48.18
24996;BME280;13016;52.162;21.034;2023-02-18T15:24:42;99541.77;;;11.10;49.11
24996;BME280;13016;52.162;21.034;2023-02-18T15:27:17;99557.88;;;10.91;51.23
24996;BME280;13016;52.162;21.034;2023-02-18T15:29:43;99557.75;;;10.77;53.44
24996;BME280;13016;52.162;21.034;2023-02-18T15:32:20;99553.40;;;10.87;53.97
24996;BME280;13016;52.162;21.034;2023-02-18T15:34:50;99558.97;;;10.74;54.30
24996;BME280;13016;52.162;21.034;2023-02-18T15:37:15;99555.61;;;10.61;54.61
24996;BME280;13016;52.162;21.034;2023-02-18T15:39:41;99553.88;;;10.43;54.88
24996;BME280;13016;52.162;21.034;2023-02-18T15:44:34;99538.98;;;9.99;56.18
24996;BME280;13016;52.162;21.034;2023-02-18T15:47:03;99542.77;;;9.77;56.39
24996;BME280;13016;52.162;21.034;2023-02-18T15:49:29;99546.52;;;9.99;56.24
24996;BME280;13016;52.162;21.034;2023-02-18T15:51:59;99542.52;;;9.93;56.70
24996;BME280;13016;52.162;21.034;2023-02-18T15:54:26;99536.65;;;9.84;57.15
24996;BME280;13016;52.162;21.034;2023-02-18T15:56:54;99535.16;;;9.90;57.36
24996;BME280;13016;52.162;21.034;2023-02-18T15:59:27;99534.73;;;10.03;57.19
24996;BME280;13016;52.162;21.034;2023-02-18T16:01:55;99546.93;;;9.91;57.66
24996;BME280;13016;52.162;21.034;2023-02-18T16:04:23;99544.14;;;9.95;57.97
24996;BME280;13016;52.162;21.034;2023-02-18T16:06:53;99544.16;;;9.93;58.21
24996;BME280;13016;52.162;21.034;2023-02-18T16:09:22;99535.53;;;9.83;58.59
24996;BME280;13016;52.162;21.034;2023-02-18T16:11:59;99528.09;;;10.00;58.67